Terminal Aerodrome Forecast
Issued by NWS

Home | Current Version | Previous Version | Graphics & Text | Print | Product List | Glossary On
Versions: 1 2 3 4 5 6 7 8 9 10 11 12 13 14 15 16 17 18 19 20 21 22
000
FTUS43 KBIS 310535
TAFJMS
TAF
KJMS 310535Z 3106/0106 18012G19KT P6SM SCT150 WS020/20040KT
     FM311200 19010KT P6SM VCTS SCT080CB BKN150
     FM311500 24014G20KT P6SM VCTS BKN080CB BKN150
     FM311800 30016G23KT P6SM SCT080 SCT150
     FM010200 27005KT P6SM SKC=

USA.gov is the U.S. government's official web portal to all federal, state and local government web resources and services.